sensor_id;sensor_type;location;lat;lon;timestamp;temperature;humidity
30336;DHT22;17142;47.990;7.846;2022-11-03T06:18:35;7.10;99.90
30336;DHT22;17142;47.990;7.846;2022-11-03T06:21:24;7.20;99.90
30336;DHT22;17142;47.990;7.846;2022-11-03T06:23:53;7.30;99.90
30336;DHT22;17142;47.990;7.846;2022-11-03T06:26:28;7.30;99.90
30336;DHT22;17142;47.990;7.846;2022-11-03T06:28:58;7.30;99.90
30336;DHT22;17142;47.990;7.846;2022-11-03T06:31:30;7.30;99.90
30336;DHT22;17142;47.990;7.846;2022-11-03T06:33:57;7.20;99.90
30336;DHT22;17142;47.990;7.846;2022-11-03T06:36:27;7.20;99.90
30336;DHT22;17142;47.990;7.846;2022-11-03T06:39:21;7.20;99.90
30336;DHT22;17142;47.990;7.846;2022-11-03T06:41:48;7.20;99.90
30336;DHT22;17142;47.990;7.846;2022-11-03T06:44:24;7.40;99.90
30336;DHT22;17142;47.990;7.846;2022-11-03T06:46:54;7.60;99.90
30336;DHT22;17142;47.990;7.846;2022-11-03T06:49:27;7.70;99.90
30336;DHT22;17142;47.990;7.846;2022-11-03T06:51:58;7.80;99.90
30336;DHT22;17142;47.990;7.846;2022-11-03T06:54:26;7.80;99.90
30336;DHT22;17142;47.990;7.846;2022-11-03T06:56:53;7.90;99.90
30336;DHT22;17142;47.990;7.846;2022-11-03T06:59:29;8.00;99.90
30336;DHT22;17142;47.990;7.846;2022-11-03T07:01:55;8.20;99.90
30336;DHT22;17142;47.990;7.846;2022-11-03T07:04:23;8.20;99.90
30336;DHT22;17142;47.990;7.846;2022-11-03T07:07:00;8.30;99.90
30336;DHT22;17142;47.990;7.846;2022-11-03T07:09:27;8.40;99.90
30336;DHT22;17142;47.990;7.846;2022-11-03T07:11:57;8.50;99.90
30336;DHT22;17142;47.990;7.846;2022-11-03T07:21:56;8.80;99.90
30336;DHT22;17142;47.990;7.846;2022-11-03T07:24:28;8.80;99.90
30336;DHT22;17142;47.990;7.846;2022-11-03T07:29:28;9.00;99.90
30336;DHT22;17142;47.990;7.846;2022-11-03T07:31:58;9.10;99.90
30336;DHT22;17142;47.990;7.846;2022-11-03T07:34:28;9.20;99.90
30336;DHT22;17142;47.990;7.846;2022-11-03T07:36:58;9.30;99.90
30336;DHT22;17142;47.990;7.846;2022-11-03T07:39:31;9.40;99.90
30336;DHT22;17142;47.990;7.846;2022-11-03T07:41:58;9.50;99.90
30336;DHT22;17142;47.990;7.846;2022-11-03T07:44:23;9.50;99.90
30336;DHT22;17142;47.990;7.846;2022-11-03T07:46:49;9.50;99.90
30336;DHT22;17142;47.990;7.846;2022-11-03T07:49:28;9.50;99.90
30336;DHT22;17142;47.990;7.846;2022-11-03T07:51:56;9.60;99.90
30336;DHT22;17142;47.990;7.846;2022-11-03T07:54:32;9.80;99.90
30336;DHT22;17142;47.990;7.846;2022-11-03T07:59:44;10.10;99.90
30336;DHT22;17142;47.990;7.846;2022-11-03T08:02:25;10.20;99.90
30336;DHT22;17142;47.990;7.846;2022-11-03T08:04:53;10.30;99.90
30336;DHT22;17142;47.990;7.846;2022-11-03T08:07:19;10.40;99.90
30336;DHT22;17142;47.990;7.846;2022-11-03T08:09:45;10.50;99.90
30336;DHT22;17142;47.990;7.846;2022-11-03T08:12:12;10.60;99.90
30336;DHT22;17142;47.990;7.846;2022-11-03T08:14:38;10.80;99.90
30336;DHT22;17142;47.990;7.846;2022-11-03T08:17:06;11.00;99.90
30336;DHT22;17142;47.990;7.846;2022-11-03T08:19:32;11.20;99.90
30336;DHT22;17142;47.990;7.846;2022-11-03T08:22:00;11.40;99.90
30336;DHT22;17142;47.990;7.846;2022-11-03T08:24:28;11.50;99.90
30336;DHT22;17142;47.990;7.846;2022-11-03T08:26:56;11.60;99.90
30336;DHT22;17142;47.990;7.846;2022-11-03T08:29:21;11.70;99.90
30336;DHT22;17142;47.990;7.846;2022-11-03T08:31:49;11.90;99.90
30336;DHT22;17142;47.990;7.846;2022-11-03T08:34:15;12.20;99.90
30336;DHT22;17142;47.990;7.846;2022-11-03T08:36:40;12.50;99.90
30336;DHT22;17142;47.990;7.846;2022-11-03T08:39:06;12.70;99.90
30336;DHT22;17142;47.990;7.846;2022-11-03T08:41:34;12.90;99.90
30336;DHT22;17142;47.990;7.846;2022-11-03T08:44:00;13.10;99.90
30336;DHT22;17142;47.990;7.846;2022-11-03T08:46:28;13.40;99.90
30336;DHT22;17142;47.990;7.846;2022-11-03T08:48:53;13.50;99.90
30336;DHT22;17142;47.990;7.846;2022-11-03T08:51:21;13.70;99.90
30336;DHT22;17142;47.990;7.846;2022-11-03T08:53:47;13.80;99.90
30336;DHT22;17142;47.990;7.846;2022-11-03T08:56:20;13.80;99.90
30336;DHT22;17142;47.990;7.846;2022-11-03T08:58:46;13.90;99.90
30336;DHT22;17142;47.990;7.846;2022-11-03T09:01:13;14.00;99.90
30336;DHT22;17142;47.990;7.846;2022-11-03T09:03:39;14.10;99.90
30336;DHT22;17142;47.990;7.846;2022-11-03T09:06:05;14.10;99.90
30336;DHT22;17142;47.990;7.846;2022-11-03T09:08:31;14.30;99.90
30336;DHT22;17142;47.990;7.846;2022-11-03T09:10:59;14.40;99.90
30336;DHT22;17142;47.990;7.846;2022-11-03T09:13:25;14.40;99.90
30336;DHT22;17142;47.990;7.846;2022-11-03T09:15:52;14.40;99.90
30336;DHT22;17142;47.990;7.846;2022-11-03T09:18:18;14.50;99.90
30336;DHT22;17142;47.990;7.846;2022-11-03T09:20:47;14.60;99.90
30336;DHT22;17142;47.990;7.846;2022-11-03T09:23:13;14.70;99.90
30336;DHT22;17142;47.990;7.846;2022-11-03T09:25:39;14.60;99.90
30336;DHT22;17142;47.990;7.846;2022-11-03T09:28:04;14.60;99.90
30336;DHT22;17142;47.990;7.846;2022-11-03T09:30:30;14.50;99.90
30336;DHT22;17142;47.990;7.846;2022-11-03T09:32:58;14.50;99.90
30336;DHT22;17142;47.990;7.846;2022-11-03T09:35:27;14.50;99.90
30336;DHT22;17142;47.990;7.846;2022-11-03T09:37:55;14.40;99.90
30336;DHT22;17142;47.990;7.846;2022-11-03T09:40:22;14.40;99.90
30336;DHT22;17142;47.990;7.846;2022-11-03T09:42:49;14.30;99.90
30336;DHT22;17142;47.990;7.846;2022-11-03T09:45:15;14.30;99.90
30336;DHT22;17142;47.990;7.846;2022-11-03T09:47:41;14.30;99.90
30336;DHT22;17142;47.990;7.846;2022-11-03T09:50:16;14.40;99.90
30336;DHT22;17142;47.990;7.846;2022-11-03T09:52:44;14.30;99.90
30336;DHT22;17142;47.990;7.846;2022-11-03T09:55:14;14.40;99.90
30336;DHT22;17142;47.990;7.846;2022-11-03T09:57:41;14.30;99.90
30336;DHT22;17142;47.990;7.846;2022-11-03T10:00:17;14.30;99.90
30336;DHT22;17142;47.990;7.846;2022-11-03T10:02:47;14.40;99.90
30336;DHT22;17142;47.990;7.846;2022-11-03T10:05:26;14.50;99.90
30336;DHT22;17142;47.990;7.846;2022-11-03T10:08:00;14.70;99.90
30336;DHT22;17142;47.990;7.846;2022-11-03T10:10:28;14.90;99.90
30336;DHT22;17142;47.990;7.846;2022-11-03T10:12:54;15.00;99.90
30336;DHT22;17142;47.990;7.846;2022-11-03T10:15:21;15.10;99.90
30336;DHT22;17142;47.990;7.846;2022-11-03T10:17:50;15.20;99.90
30336;DHT22;17142;47.990;7.846;2022-11-03T10:20:18;15.20;99.90
30336;DHT22;17142;47.990;7.846;2022-11-03T10:22:45;15.20;99.90
30336;DHT22;17142;47.990;7.846;2022-11-03T10:25:28;15.30;99.90
30336;DHT22;17142;47.990;7.846;2022-11-03T10:28:20;15.40;99.90
30336;DHT22;17142;47.990;7.846;2022-11-03T10:30:59;15.50;99.90
30336;DHT22;17142;47.990;7.846;2022-11-03T10:33:33;15.60;99.90
30336;DHT22;17142;47.990;7.846;2022-11-03T10:36:04;15.70;99.90
30336;DHT22;17142;47.990;7.846;2022-11-03T10:38:45;15.70;99.90
30336;DHT22;17142;47.990;7.846;2022-11-03T10:41:26;15.80;99.90
30336;DHT22;17142;47.990;7.846;2022-11-03T10:46:39;15.70;99.90
30336;DHT22;17142;47.990;7.846;2022-11-03T10:49:14;15.70;99.90
30336;DHT22;17142;47.990;7.846;2022-11-03T10:51:45;15.70;99.90
30336;DHT22;17142;47.990;7.846;2022-11-03T10:54:16;15.80;99.90
30336;DHT22;17142;47.990;7.846;2022-11-03T10:56:44;15.70;99.90
30336;DHT22;17142;47.990;7.846;2022-11-03T11:01:41;15.50;99.90
30336;DHT22;17142;47.990;7.846;2022-11-03T11:04:08;15.40;99.90
30336;DHT22;17142;47.990;7.846;2022-11-03T11:06:34;15.30;99.90
30336;DHT22;17142;47.990;7.846;2022-11-03T11:09:01;15.30;99.90
30336;DHT22;17142;47.990;7.846;2022-11-03T11:11:30;15.30;99.90
30336;DHT22;17142;47.990;7.846;2022-11-03T11:16:50;15.30;99.90
30336;DHT22;17142;47.990;7.846;2022-11-03T11:19:19;15.30;99.90
30336;DHT22;17142;47.990;7.846;2022-11-03T11:24:12;15.40;99.90
30336;DHT22;17142;47.990;7.846;2022-11-03T11:26:38;15.30;99.90
30336;DHT22;17142;47.990;7.846;2022-11-03T11:31:43;15.40;99.90
30336;DHT22;17142;47.990;7.846;2022-11-03T11:50:18;15.70;99.90
30336;DHT22;17142;47.990;7.846;2022-11-03T11:53:13;15.70;99.90
30336;DHT22;17142;47.990;7.846;2022-11-03T11:55:55;15.70;99.90
30336;DHT22;17142;47.990;7.846;2022-11-03T12:01:31;15.70;99.90
30336;DHT22;17142;47.990;7.846;2022-11-03T12:04:15;15.70;99.90
30336;DHT22;17142;47.990;7.846;2022-11-03T12:06:42;15.80;99.90
30336;DHT22;17142;47.990;7.846;2022-11-03T12:11:57;15.90;99.90
30336;DHT22;17142;47.990;7.846;2022-11-03T12:14:34;15.90;99.90
30336;DHT22;17142;47.990;7.846;2022-11-03T12:19:45;16.00;99.90
30336;DHT22;17142;47.990;7.846;2022-11-03T12:25:02;16.10;99.90
30336;DHT22;17142;47.990;7.846;2022-11-03T12:29:59;16.10;99.90
30336;DHT22;17142;47.990;7.846;2022-11-03T12:32:25;16.10;99.90
30336;DHT22;17142;47.990;7.846;2022-11-03T12:34:51;16.20;99.90
30336;DHT22;17142;47.990;7.846;2022-11-03T12:37:21;16.10;99.90
30336;DHT22;17142;47.990;7.846;2022-11-03T12:39:46;16.10;99.90
30336;DHT22;17142;47.990;7.846;2022-11-03T12:42:12;16.00;99.90
30336;DHT22;17142;47.990;7.846;2022-11-03T12:44:38;16.00;99.90
30336;DHT22;17142;47.990;7.846;2022-11-03T12:47:06;15.90;99.90
30336;DHT22;17142;47.990;7.846;2022-11-03T12:49:31;15.80;99.90
30336;DHT22;17142;47.990;7.846;2022-11-03T12:51:57;15.80;99.90
30336;DHT22;17142;47.990;7.846;2022-11-03T12:54:31;15.80;99.90
30336;DHT22;17142;47.990;7.846;2022-11-03T12:56:59;15.80;99.90
30336;DHT22;17142;47.990;7.846;2022-11-03T12:59:25;15.90;99.90
30336;DHT22;17142;47.990;7.846;2022-11-03T13:01:51;16.00;99.90
30336;DHT22;17142;47.990;7.846;2022-11-03T13:04:19;16.10;99.90
30336;DHT22;17142;47.990;7.846;2022-11-03T13:06:44;16.10;99.90
30336;DHT22;17142;47.990;7.846;2022-11-03T13:09:10;16.20;99.90
30336;DHT22;17142;47.990;7.846;2022-11-03T13:11:36;16.30;99.90
30336;DHT22;17142;47.990;7.846;2022-11-03T13:14:20;16.30;99.90
30336;DHT22;17142;47.990;7.846;2022-11-03T13:16:52;16.40;99.90
30336;DHT22;17142;47.990;7.846;2022-11-03T13:19:18;16.50;99.90
30336;DHT22;17142;47.990;7.846;2022-11-03T13:21:44;16.50;99.90
30336;DHT22;17142;47.990;7.846;2022-11-03T13:24:09;16.60;99.90
30336;DHT22;17142;47.990;7.846;2022-11-03T13:26:37;16.60;99.90
30336;DHT22;17142;47.990;7.846;2022-11-03T13:29:03;16.60;99.90
30336;DHT22;17142;47.990;7.846;2022-11-03T13:31:28;16.50;99.90
30336;DHT22;17142;47.990;7.846;2022-11-03T13:33:54;16.50;99.90
30336;DHT22;17142;47.990;7.846;2022-11-03T13:36:19;16.40;99.90
30336;DHT22;17142;47.990;7.846;2022-11-03T13:38:45;16.30;99.90
30336;DHT22;17142;47.990;7.846;2022-11-03T13:41:11;16.30;99.90
30336;DHT22;17142;47.990;7.846;2022-11-03T13:43:38;16.20;99.90
30336;DHT22;17142;47.990;7.846;2022-11-03T13:46:06;16.10;99.90
30336;DHT22;17142;47.990;7.846;2022-11-03T13:48:32;16.10;99.90
30336;DHT22;17142;47.990;7.846;2022-11-03T13:50:58;16.00;99.90
30336;DHT22;17142;47.990;7.846;2022-11-03T13:53:24;16.00;99.90
30336;DHT22;17142;47.990;7.846;2022-11-03T13:55:52;16.00;99.90
30336;DHT22;17142;47.990;7.846;2022-11-03T13:58:17;16.00;99.90
30336;DHT22;17142;47.990;7.846;2022-11-03T14:00:43;16.00;99.90
30336;DHT22;17142;47.990;7.846;2022-11-03T14:03:09;16.00;99.90
30336;DHT22;17142;47.990;7.846;2022-11-03T14:05:34;16.10;99.90
30336;DHT22;17142;47.990;7.846;2022-11-03T14:08:00;16.10;99.90
30336;DHT22;17142;47.990;7.846;2022-11-03T14:10:26;16.10;99.90
30336;DHT22;17142;47.990;7.846;2022-11-03T14:12:52;16.00;99.90
30336;DHT22;17142;47.990;7.846;2022-11-03T14:15:18;16.00;99.90
30336;DHT22;17142;47.990;7.846;2022-11-03T14:17:43;16.10;99.90
30336;DHT22;17142;47.990;7.846;2022-11-03T14:20:11;16.10;99.90
30336;DHT22;17142;47.990;7.846;2022-11-03T14:22:38;16.10;99.90
30336;DHT22;17142;47.990;7.846;2022-11-03T14:25:06;16.10;99.90
30336;DHT22;17142;47.990;7.846;2022-11-03T14:27:34;16.10;99.90
30336;DHT22;17142;47.990;7.846;2022-11-03T14:30:00;16.00;99.90
30336;DHT22;17142;47.990;7.846;2022-11-03T14:32:28;15.90;99.90
30336;DHT22;17142;47.990;7.846;2022-11-03T14:34:54;15.90;99.90
30336;DHT22;17142;47.990;7.846;2022-11-03T14:37:19;15.90;99.90
30336;DHT22;17142;47.990;7.846;2022-11-03T14:39:45;15.80;99.90
30336;DHT22;17142;47.990;7.846;2022-11-03T14:42:12;15.80;99.90
30336;DHT22;17142;47.990;7.846;2022-11-03T14:44:43;15.70;99.90
30336;DHT22;17142;47.990;7.846;2022-11-03T14:47:14;15.70;99.90
30336;DHT22;17142;47.990;7.846;2022-11-03T14:49:44;15.60;99.90
30336;DHT22;17142;47.990;7.846;2022-11-03T14:52:10;15.60;99.90
30336;DHT22;17142;47.990;7.846;2022-11-03T14:54:38;15.50;99.90
30336;DHT22;17142;47.990;7.846;2022-11-03T14:57:04;15.40;99.90
30336;DHT22;17142;47.990;7.846;2022-11-03T14:59:30;15.40;99.90
30336;DHT22;17142;47.990;7.846;2022-11-03T15:01:56;15.30;99.90
30336;DHT22;17142;47.990;7.846;2022-11-03T15:04:27;15.30;99.90
30336;DHT22;17142;47.990;7.846;2022-11-03T15:06:52;15.20;99.90
30336;DHT22;17142;47.990;7.846;2022-11-03T15:09:19;15.10;99.90
30336;DHT22;17142;47.990;7.846;2022-11-03T15:11:47;15.10;99.90
30336;DHT22;17142;47.990;7.846;2022-11-03T15:14:12;15.00;99.90
30336;DHT22;17142;47.990;7.846;2022-11-03T15:16:38;14.90;99.90
30336;DHT22;17142;47.990;7.846;2022-11-03T15:19:05;14.90;99.90
30336;DHT22;17142;47.990;7.846;2022-11-03T15:21:31;14.90;99.90
30336;DHT22;17142;47.990;7.846;2022-11-03T15:23:57;14.80;99.90
30336;DHT22;17142;47.990;7.846;2022-11-03T15:26:23;14.70;99.90
30336;DHT22;17142;47.990;7.846;2022-11-03T15:28:51;14.70;99.90
30336;DHT22;17142;47.990;7.846;2022-11-03T15:31:17;14.70;99.90
30336;DHT22;17142;47.990;7.846;2022-11-03T15:33:42;14.70;99.90
30336;DHT22;17142;47.990;7.846;2022-11-03T15:36:08;14.70;99.90
30336;DHT22;17142;47.990;7.846;2022-11-03T15:38:34;14.70;99.90
30336;DHT22;17142;47.990;7.846;2022-11-03T15:41:00;14.60;99.90
30336;DHT22;17142;47.990;7.846;2022-11-03T15:43:45;14.60;99.90
30336;DHT22;17142;47.990;7.846;2022-11-03T15:46:12;14.60;99.90
30336;DHT22;17142;47.990;7.846;2022-11-03T15:48:38;14.50;99.90
30336;DHT22;17142;47.990;7.846;2022-11-03T15:51:04;14.40;99.90
30336;DHT22;17142;47.990;7.846;2022-11-03T15:53:30;14.30;99.90
30336;DHT22;17142;47.990;7.846;2022-11-03T15:55:55;14.20;99.90
30336;DHT22;17142;47.990;7.846;2022-11-03T15:58:21;14.10;99.90
30336;DHT22;17142;47.990;7.846;2022-11-03T16:00:46;14.00;99.90
30336;DHT22;17142;47.990;7.846;2022-11-03T16:03:12;14.00;99.90
30336;DHT22;17142;47.990;7.846;2022-11-03T16:05:37;13.90;99.90
30336;DHT22;17142;47.990;7.846;2022-11-03T16:08:03;13.90;99.90
30336;DHT22;17142;47.990;7.846;2022-11-03T16:10:33;13.80;99.90
30336;DHT22;17142;47.990;7.846;2022-11-03T16:12:59;13.80;99.90
30336;DHT22;17142;47.990;7.846;2022-11-03T16:15:27;13.80;99.90
30336;DHT22;17142;47.990;7.846;2022-11-03T16:17:52;13.80;99.90
30336;DHT22;17142;47.990;7.846;2022-11-03T16:20:18;13.80;99.90
30336;DHT22;17142;47.990;7.846;2022-11-03T16:22:45;13.80;99.90
30336;DHT22;17142;47.990;7.846;2022-11-03T16:25:13;13.80;99.90
30336;DHT22;17142;47.990;7.846;2022-11-03T16:27:38;13.90;99.90
30336;DHT22;17142;47.990;7.846;2022-11-03T16:30:04;14.00;99.90
30336;DHT22;17142;47.990;7.846;2022-11-03T16:32:32;13.90;99.90
30336;DHT22;17142;47.990;7.846;2022-11-03T16:34:58;13.80;99.90
30336;DHT22;17142;47.990;7.846;2022-11-03T16:37:23;13.70;99.90
30336;DHT22;17142;47.990;7.846;2022-11-03T16:39:54;13.60;99.90
30336;DHT22;17142;47.990;7.846;2022-11-03T16:42:20;13.60;99.90
30336;DHT22;17142;47.990;7.846;2022-11-03T16:44:45;13.50;99.90
30336;DHT22;17142;47.990;7.846;2022-11-03T16:47:13;13.50;99.90
30336;DHT22;17142;47.990;7.846;2022-11-03T16:49:38;13.50;99.90
30336;DHT22;17142;47.990;7.846;2022-11-03T16:52:06;13.40;99.90
30336;DHT22;17142;47.990;7.846;2022-11-03T16:54:33;13.40;99.90
30336;DHT22;17142;47.990;7.846;2022-11-03T16:56:59;13.30;99.90
30336;DHT22;17142;47.990;7.846;2022-11-03T16:59:24;13.30;99.90
30336;DHT22;17142;47.990;7.846;2022-11-03T17:01:51;13.30;99.90
30336;DHT22;17142;47.990;7.846;2022-11-03T17:04:19;13.30;99.90
30336;DHT22;17142;47.990;7.846;2022-11-03T17:06:45;13.40;99.90
30336;DHT22;17142;47.990;7.846;2022-11-03T17:09:11;13.40;99.90
30336;DHT22;17142;47.990;7.846;2022-11-03T17:11:38;13.40;99.90
30336;DHT22;17142;47.990;7.846;2022-11-03T17:14:06;13.30;99.90
30336;DHT22;17142;47.990;7.846;2022-11-03T17:16:32;13.30;99.90
30336;DHT22;17142;47.990;7.846;2022-11-03T17:18:58;13.30;99.90
30336;DHT22;17142;47.990;7.846;2022-11-03T17:21:27;13.20;99.90
30336;DHT22;17142;47.990;7.846;2022-11-03T17:23:52;13.20;99.90
30336;DHT22;17142;47.990;7.846;2022-11-03T17:26:30;13.20;99.90
30336;DHT22;17142;47.990;7.846;2022-11-03T17:29:01;13.20;99.90
30336;DHT22;17142;47.990;7.846;2022-11-03T17:31:27;13.10;99.90
30336;DHT22;17142;47.990;7.846;2022-11-03T17:33:53;13.00;99.90
30336;DHT22;17142;47.990;7.846;2022-11-03T17:36:22;13.00;99.90
30336;DHT22;17142;47.990;7.846;2022-11-03T17:38:48;12.90;99.90
30336;DHT22;17142;47.990;7.846;2022-11-03T17:41:13;12.90;99.90
30336;DHT22;17142;47.990;7.846;2022-11-03T17:43:39;12.80;99.90
30336;DHT22;17142;47.990;7.846;2022-11-03T17:46:06;12.70;99.90
30336;DHT22;17142;47.990;7.846;2022-11-03T17:48:34;12.50;99.90
30336;DHT22;17142;47.990;7.846;2022-11-03T17:51:00;12.40;99.90
30336;DHT22;17142;47.990;7.846;2022-11-03T17:53:28;12.30;99.90
30336;DHT22;17142;47.990;7.846;2022-11-03T17:55:56;12.20;99.90
30336;DHT22;17142;47.990;7.846;2022-11-03T17:58:33;12.20;99.90
30336;DHT22;17142;47.990;7.846;2022-11-03T18:01:02;12.10;99.90
30336;DHT22;17142;47.990;7.846;2022-11-03T18:03:28;12.10;99.90
30336;DHT22;17142;47.990;7.846;2022-11-03T18:05:57;12.00;99.90
30336;DHT22;17142;47.990;7.846;2022-11-03T18:08:22;11.90;99.90
30336;DHT22;17142;47.990;7.846;2022-11-03T18:10:50;11.90;99.90
30336;DHT22;17142;47.990;7.846;2022-11-03T18:13:25;11.80;99.90
30336;DHT22;17142;47.990;7.846;2022-11-03T18:18:41;11.70;99.90
30336;DHT22;17142;47.990;7.846;2022-11-03T18:21:19;11.70;99.90
30336;DHT22;17142;47.990;7.846;2022-11-03T18:23:45;11.70;99.90
30336;DHT22;17142;47.990;7.846;2022-11-03T18:26:16;11.60;99.90
30336;DHT22;17142;47.990;7.846;2022-11-03T18:28:45;11.60;99.90
30336;DHT22;17142;47.990;7.846;2022-11-03T18:31:30;11.60;99.90
30336;DHT22;17142;47.990;7.846;2022-11-03T18:33:58;11.60;99.90
30336;DHT22;17142;47.990;7.846;2022-11-03T18:36:24;11.60;99.90
30336;DHT22;17142;47.990;7.846;2022-11-03T18:38:51;11.60;99.90
30336;DHT22;17142;47.990;7.846;2022-11-03T18:41:20;11.60;99.90
30336;DHT22;17142;47.990;7.846;2022-11-03T18:44:16;11.50;99.90
30336;DHT22;17142;47.990;7.846;2022-11-03T18:46:42;11.50;99.90
30336;DHT22;17142;47.990;7.846;2022-11-03T18:49:08;11.50;99.90
30336;DHT22;17142;47.990;7.846;2022-11-03T18:51:34;11.50;99.90
30336;DHT22;17142;47.990;7.846;2022-11-03T18:54:00;11.50;99.90
30336;DHT22;17142;47.990;7.846;2022-11-03T18:56:26;11.40;99.90
30336;DHT22;17142;47.990;7.846;2022-11-03T18:58:54;11.40;99.90
30336;DHT22;17142;47.990;7.846;2022-11-03T19:01:23;11.40;99.90
30336;DHT22;17142;47.990;7.846;2022-11-03T19:03:49;11.50;99.90
30336;DHT22;17142;47.990;7.846;2022-11-03T19:06:15;11.50;99.90
30336;DHT22;17142;47.990;7.846;2022-11-03T19:08:42;11.40;99.90
30336;DHT22;17142;47.990;7.846;2022-11-03T19:11:11;11.40;99.90
30336;DHT22;17142;47.990;7.846;2022-11-03T19:13:44;11.40;99.90
30336;DHT22;17142;47.990;7.846;2022-11-03T19:16:16;11.30;99.90
30336;DHT22;17142;47.990;7.846;2022-11-03T19:18:43;11.30;99.90
30336;DHT22;17142;47.990;7.846;2022-11-03T19:21:20;11.30;99.90
30336;DHT22;17142;47.990;7.846;2022-11-03T19:23:47;11.30;99.90
30336;DHT22;17142;47.990;7.846;2022-11-03T19:26:26;11.20;99.90
30336;DHT22;17142;47.990;7.846;2022-11-03T19:28:56;11.30;99.90
30336;DHT22;17142;47.990;7.846;2022-11-03T19:31:39;11.30;99.90
30336;DHT22;17142;47.990;7.846;2022-11-03T19:34:14;11.20;99.90
30336;DHT22;17142;47.990;7.846;2022-11-03T19:36:40;11.20;99.90
30336;DHT22;17142;47.990;7.846;2022-11-03T19:39:16;11.20;99.90
30336;DHT22;17142;47.990;7.846;2022-11-03T19:41:47;11.30;99.90
30336;DHT22;17142;47.990;7.846;2022-11-03T19:44:32;11.20;99.90
30336;DHT22;17142;47.990;7.846;2022-11-03T19:46:57;11.20;99.90
30336;DHT22;17142;47.990;7.846;2022-11-03T19:49:23;11.20;99.90
30336;DHT22;17142;47.990;7.846;2022-11-03T19:51:49;11.20;99.90
30336;DHT22;17142;47.990;7.846;2022-11-03T19:54:17;11.20;99.90
30336;DHT22;17142;47.990;7.846;2022-11-03T19:56:43;11.20;99.90
30336;DHT22;17142;47.990;7.846;2022-11-03T19:59:15;11.20;99.90
30336;DHT22;17142;47.990;7.846;2022-11-03T20:01:41;11.30;99.90
30336;DHT22;17142;47.990;7.846;2022-11-03T20:04:07;11.30;99.90
30336;DHT22;17142;47.990;7.846;2022-11-03T20:06:37;11.30;99.90
30336;DHT22;17142;47.990;7.846;2022-11-03T20:09:05;11.30;99.90
30336;DHT22;17142;47.990;7.846;2022-11-03T20:11:34;11.30;99.90
30336;DHT22;17142;47.990;7.846;2022-11-03T20:14:03;11.40;99.90
30336;DHT22;17142;47.990;7.846;2022-11-03T20:16:31;11.30;99.90
30336;DHT22;17142;47.990;7.846;2022-11-03T20:18:59;11.30;99.90
30336;DHT22;17142;47.990;7.846;2022-11-03T20:21:27;11.30;99.90
30336;DHT22;17142;47.990;7.846;2022-11-03T20:23:54;11.30;99.90
30336;DHT22;17142;47.990;7.846;2022-11-03T20:26:21;11.30;99.90
30336;DHT22;17142;47.990;7.846;2022-11-03T20:28:54;11.40;99.90
30336;DHT22;17142;47.990;7.846;2022-11-03T20:31:20;11.40;99.90
30336;DHT22;17142;47.990;7.846;2022-11-03T20:33:46;11.50;99.90
30336;DHT22;17142;47.990;7.846;2022-11-03T20:36:16;11.50;99.90
30336;DHT22;17142;47.990;7.846;2022-11-03T20:38:48;11.50;99.90
30336;DHT22;17142;47.990;7.846;2022-11-03T20:41:16;11.50;99.90
30336;DHT22;17142;47.990;7.846;2022-11-03T20:43:44;11.40;99.90
30336;DHT22;17142;47.990;7.846;2022-11-03T20:46:26;11.30;99.90
30336;DHT22;17142;47.990;7.846;2022-11-03T20:48:52;11.30;99.90
30336;DHT22;17142;47.990;7.846;2022-11-03T20:51:22;11.30;99.90
30336;DHT22;17142;47.990;7.846;2022-11-03T20:53:51;11.30;99.90
30336;DHT22;17142;47.990;7.846;2022-11-03T20:56:22;11.20;99.90
30336;DHT22;17142;47.990;7.846;2022-11-03T20:58:48;11.20;99.90
30336;DHT22;17142;47.990;7.846;2022-11-03T21:01:32;11.20;99.90
30336;DHT22;17142;47.990;7.846;2022-11-03T21:03:59;11.10;99.90
30336;DHT22;17142;47.990;7.846;2022-11-03T21:06:27;11.10;99.90
30336;DHT22;17142;47.990;7.846;2022-11-03T21:08:56;11.00;99.90
30336;DHT22;17142;47.990;7.846;2022-11-03T21:11:24;10.90;99.90
30336;DHT22;17142;47.990;7.846;2022-11-03T21:13:55;10.90;99.90
30336;DHT22;17142;47.990;7.846;2022-11-03T21:16:22;10.80;99.90
30336;DHT22;17142;47.990;7.846;2022-11-03T21:19:22;10.80;99.90
30336;DHT22;17142;47.990;7.846;2022-11-03T21:22:15;10.80;99.90
30336;DHT22;17142;47.990;7.846;2022-11-03T21:24:41;10.90;99.90
30336;DHT22;17142;47.990;7.846;2022-11-03T21:27:11;10.90;99.90
30336;DHT22;17142;47.990;7.846;2022-11-03T21:29:40;11.00;99.90
30336;DHT22;17142;47.990;7.846;2022-11-03T21:32:11;11.30;99.90
